PDT,Max TemperatureF,Mean TemperatureF,Min TemperatureF,Max Dew PointF,MeanDew PointF,Min DewpointF,Max Humidity, Mean Humidity, Min Humidity, Max Sea Level PressureIn, Mean Sea Level PressureIn, Min Sea Level PressureIn, Max VisibilityMiles, Mean VisibilityMiles, Min VisibilityMiles, Max Wind SpeedMPH, Mean Wind SpeedMPH, Max Gust SpeedMPH,PrecipitationIn, CloudCover, Events, WindDirDegrees
2012-10-1,103,80,57,48,40,25,67,32,6,30.00,29.92,29.84,10,10,10,15,2,22,0.00,0,,299
2012-10-2,102,79,57,46,39,26,57,30,8,29.91,29.87,29.81,10,10,10,17,3,,0.00,0,,307
2012-10-3,92,74,56,50,46,41,67,43,17,30.04,29.97,29.90,10,10,8,15,2,,0.00,0,,318
2012-10-4,83,68,52,56,50,45,82,58,30,30.11,30.07,30.03,10,10,10,13,4,,0.00,0,,298
2012-10-5,81,66,51,58,53,48,100,74,31,30.07,30.03,29.95,10,8,0,9,2,,0.00,2,Fog,286
2012-10-6,82,68,54,58,55,49,98,68,32,29.99,29.95,29.89,10,10,10,12,2,,0.00,0,,283
2012-10-7,83,68,53,61,56,52,99,70,34,29.96,29.92,29.87,10,10,8,12,3,,0.00,0,,304
2012-10-8,79,67,55,63,58,54,100,85,46,30.01,29.97,29.92,10,7,1,12,2,,0.00,3,,291
2012-10-9,76,66,56,61,58,54,100,87,47,30.03,29.99,29.91,10,7,2,10,4,,0.00,6,,164
2012-10-10,72,64,56,59,54,50,99,72,46,30.02,29.96,29.90,10,10,10,12,4,,0.00,5,,294
2012-10-11,66,58,47,56,51,46,99,79,49,30.00,29.94,29.91,10,10,8,14,5,,0.03,5,Rain-Thunderstorm,186
2012-10-12,67,56,46,55,49,46,100,78,49,30.19,30.11,30.01,10,10,10,8,2,,0.00,5,,290
2012-10-13,78,62,47,53,49,47,99,72,37,30.21,30.14,30.06,10,9,5,10,2,,0.00,0,,306
2012-10-14,92,69,47,51,43,36,99,49,14,30.13,30.05,29.96,10,10,10,10,2,,0.00,0,,345
2012-10-15,92,70,50,45,39,26,67,38,9,29.99,29.94,29.87,10,10,10,15,2,,0.00,0,,302
2012-10-16,93,72,50,49,41,30,73,42,11,29.91,29.84,29.76,10,10,10,10,2,,0.00,0,,300
2012-10-17,97,74,52,48,40,30,73,34,9,29.89,29.82,29.77,10,10,10,10,3,,0.00,0,,59
2012-10-18,79,69,59,64,56,39,96,66,34,30.08,30.02,29.91,10,10,10,13,4,17,0.00,1,,299
2012-10-19,82,67,52,61,58,52,99,79,42,30.04,29.96,29.88,10,10,7,12,4,,0.00,0,,308
2012-10-20,72,64,57,64,60,57,100,91,64,29.95,29.89,29.84,10,5,0,12,3,,0.00,7,Fog,146
2012-10-21,70,65,60,61,57,53,100,83,57,29.94,29.89,29.87,10,10,10,10,6,,0.00,7,,157
2012-10-22,73,64,55,60,56,50,100,87,46,30.00,29.96,29.91,10,10,10,12,4,,0.00,6,,156
2012-10-23,70,60,47,55,49,40,100,76,42,30.00,29.98,29.93,10,10,10,13,4,,0.00,5,,303
2012-10-24,70,56,41,47,42,38,99,65,32,30.08,30.04,29.99,10,10,10,12,3,17,0.00,0,,293
2012-10-25,79,59,40,62,36,24,95,49,18,30.13,30.05,29.97,10,10,9,14,3,,0.00,0,,339
2012-10-26,79,67,50,28,19,12,30,16,9,30.10,30.02,29.96,10,10,10,22,12,30,0.00,0,,36
2012-10-27,88,67,46,24,19,14,37,19,7,29.97,29.93,29.86,10,10,10,12,4,,0.00,0,,334
2012-10-28,89,66,42,51,26,12,49,29,6,30.06,29.97,29.92,10,10,10,13,1,,0.00,0,,315
2012-10-29,86,64,43,40,32,24,59,37,10,30.12,30.07,30.02,10,10,10,10,2,,0.00,0,,292
2012-10-30,85,63,42,46,36,26,71,45,12,30.09,30.05,29.98,10,10,10,13,2,,0.00,0,,295
2012-10-31,79,60,42,47,40,34,90,55,21,30.07,30.02,29.98,10,10,7,13,3,,0.00,0,,308